sensor_id;sensor_type;location;lat;lon;timestamp;pressure;altitude;pressure_sealevel;temperature
71630;BMP280;59479;51.902;8.212;2024-01-10T00:01:06;102574.31;;;-2.10
71630;BMP280;59479;51.902;8.212;2024-01-10T00:03:32;102573.81;;;-2.06
71630;BMP280;59479;51.902;8.212;2024-01-10T00:05:57;102578.50;;;-2.09
71630;BMP280;59479;51.902;8.212;2024-01-10T00:08:22;102573.81;;;-2.06
71630;BMP280;59479;51.902;8.212;2024-01-10T00:10:48;102580.25;;;-2.08
71630;BMP280;59479;51.902;8.212;2024-01-10T00:13:13;102575.53;;;-2.05
71630;BMP280;59479;51.902;8.212;2024-01-10T00:15:38;102573.81;;;-2.06
71630;BMP280;59479;51.902;8.212;2024-01-10T00:18:04;102575.06;;;-2.11
71630;BMP280;59479;51.902;8.212;2024-01-10T00:20:29;102571.13;;;-2.09
71630;BMP280;59479;51.902;8.212;2024-01-10T00:22:54;102580.25;;;-2.08
71630;BMP280;59479;51.902;8.212;2024-01-10T00:25:20;102571.13;;;-2.09
71630;BMP280;59479;51.902;8.212;2024-01-10T00:27:45;102571.50;;;-2.14
71630;BMP280;59479;51.902;8.212;2024-01-10T00:30:10;102564.97;;;-2.14
71630;BMP280;59479;51.902;8.212;2024-01-10T00:32:36;102558.28;;;-2.15
71630;BMP280;59479;51.902;8.212;2024-01-10T00:35:01;102557.31;;;-2.17
71630;BMP280;59479;51.902;8.212;2024-01-10T00:37:28;102562.63;;;-2.22
71630;BMP280;59479;51.902;8.212;2024-01-10T00:39:53;102563.97;;;-2.26
71630;BMP280;59479;51.902;8.212;2024-01-10T00:42:18;102555.34;;;-2.31
71630;BMP280;59479;51.902;8.212;2024-01-10T00:44:44;102552.78;;;-2.32
71630;BMP280;59479;51.902;8.212;2024-01-10T00:47:10;102549.19;;;-2.26
71630;BMP280;59479;51.902;8.212;2024-01-10T00:49:36;102549.19;;;-2.26
71630;BMP280;59479;51.902;8.212;2024-01-10T00:52:01;102551.53;;;-2.27
71630;BMP280;59479;51.902;8.212;2024-01-10T00:54:27;102550.06;;;-2.25
71630;BMP280;59479;51.902;8.212;2024-01-10T00:56:52;102549.34;;;-2.24
71630;BMP280;59479;51.902;8.212;2024-01-10T00:59:17;102540.19;;;-2.25
71630;BMP280;59479;51.902;8.212;2024-01-10T01:01:43;102542.53;;;-2.27
71630;BMP280;59479;51.902;8.212;2024-01-10T01:04:08;102542.91;;;-2.32
71630;BMP280;59479;51.902;8.212;2024-01-10T01:06:33;102535.91;;;-2.28
71630;BMP280;59479;51.902;8.212;2024-01-10T01:08:59;102537.28;;;-2.31
71630;BMP280;59479;51.902;8.212;2024-01-10T01:11:24;102538.97;;;-2.30
71630;BMP280;59479;51.902;8.212;2024-01-10T01:13:50;102538.00;;;-2.32
71630;BMP280;59479;51.902;8.212;2024-01-10T01:16:15;102545.97;;;-2.35
71630;BMP280;59479;51.902;8.212;2024-01-10T01:18:41;102541.81;;;-2.36
71630;BMP280;59479;51.902;8.212;2024-01-10T01:21:11;102537.88;;;-2.34
71630;BMP280;59479;51.902;8.212;2024-01-10T01:23:36;102532.09;;;-2.34
71630;BMP280;59479;51.902;8.212;2024-01-10T01:26:03;102539.47;;;-2.34
71630;BMP280;59479;51.902;8.212;2024-01-10T01:28:29;102541.31;;;-2.42
71630;BMP280;59479;51.902;8.212;2024-01-10T01:30:54;102545.13;;;-2.35
71630;BMP280;59479;51.902;8.212;2024-01-10T01:33:20;102542.53;;;-2.37
71630;BMP280;59479;51.902;8.212;2024-01-10T01:35:45;102543.31;;;-2.28
71630;BMP280;59479;51.902;8.212;2024-01-10T01:38:11;102540.72;;;-2.29
71630;BMP280;59479;51.902;8.212;2024-01-10T01:40:36;102544.53;;;-2.33
71630;BMP280;59479;51.902;8.212;2024-01-10T01:43:01;102541.19;;;-2.33
71630;BMP280;59479;51.902;8.212;2024-01-10T01:45:27;102549.59;;;-2.31
71630;BMP280;59479;51.902;8.212;2024-01-10T01:47:52;102536.13;;;-2.35
71630;BMP280;59479;51.902;8.212;2024-01-10T01:50:18;102533.66;;;-2.35
71630;BMP280;59479;51.902;8.212;2024-01-10T01:52:44;102536.38;;;-2.32
71630;BMP280;59479;51.902;8.212;2024-01-10T01:55:10;102534.56;;;-2.34
71630;BMP280;59479;51.902;8.212;2024-01-10T01:57:37;102537.38;;;-2.30
71630;BMP280;59479;51.902;8.212;2024-01-10T02:00:02;102537.75;;;-2.35
71630;BMP280;59479;51.902;8.212;2024-01-10T02:02:30;102533.66;;;-2.35
71630;BMP280;59479;51.902;8.212;2024-01-10T02:04:55;102540.59;;;-2.31
71630;BMP280;59479;51.902;8.212;2024-01-10T02:07:21;102545.13;;;-2.35
71630;BMP280;59479;51.902;8.212;2024-01-10T02:09:47;102541.19;;;-2.33
71630;BMP280;59479;51.902;8.212;2024-01-10T02:12:12;102537.50;;;-2.38
71630;BMP280;59479;51.902;8.212;2024-01-10T02:14:38;102529.38;;;-2.37
71630;BMP280;59479;51.902;8.212;2024-01-10T02:17:03;102533.06;;;-2.32
71630;BMP280;59479;51.902;8.212;2024-01-10T02:19:29;102524.31;;;-2.29
71630;BMP280;59479;51.902;8.212;2024-01-10T02:21:56;102515.97;;;-2.41
71630;BMP280;59479;51.902;8.212;2024-01-10T02:24:21;102513.00;;;-2.37
71630;BMP280;59479;51.902;8.212;2024-01-10T02:26:47;102512.25;;;-2.36
71630;BMP280;59479;51.902;8.212;2024-01-10T02:29:13;102514.72;;;-2.36
71630;BMP280;59479;51.902;8.212;2024-01-10T02:31:38;102517.69;;;-2.40
71630;BMP280;59479;51.902;8.212;2024-01-10T02:34:03;102514.22;;;-2.42
71630;BMP280;59479;51.902;8.212;2024-01-10T02:36:29;102509.94;;;-2.44
71630;BMP280;59479;51.902;8.212;2024-01-10T02:38:54;102512.25;;;-2.46
71630;BMP280;59479;51.902;8.212;2024-01-10T02:41:20;102506.38;;;-2.48
71630;BMP280;59479;51.902;8.212;2024-01-10T02:43:46;102508.56;;;-2.51
71630;BMP280;59479;51.902;8.212;2024-01-10T02:46:11;102505.25;;;-2.51
71630;BMP280;59479;51.902;8.212;2024-01-10T02:48:36;102508.31;;;-2.53
71630;BMP280;59479;51.902;8.212;2024-01-10T02:51:02;102510.66;;;-2.55
71630;BMP280;59479;51.902;8.212;2024-01-10T02:53:27;102498.22;;;-2.56
71630;BMP280;59479;51.902;8.212;2024-01-10T02:55:52;102495.41;;;-2.61
71630;BMP280;59479;51.902;8.212;2024-01-10T02:58:17;102497.50;;;-2.55
71630;BMP280;59479;51.902;8.212;2024-01-10T03:00:43;102499.56;;;-2.60
71630;BMP280;59479;51.902;8.212;2024-01-10T03:03:09;102501.19;;;-2.60
71630;BMP280;59479;51.902;8.212;2024-01-10T03:05:34;102494.53;;;-2.61
71630;BMP280;59479;51.902;8.212;2024-01-10T03:07:59;102489.59;;;-2.61
71630;BMP280;59479;51.902;8.212;2024-01-10T03:10:26;102490.81;;;-2.66
71630;BMP280;59479;51.902;8.212;2024-01-10T03:12:52;102497.22;;;-2.68
71630;BMP280;59479;51.902;8.212;2024-01-10T03:15:17;102501.69;;;-2.74
71630;BMP280;59479;51.902;8.212;2024-01-10T03:17:43;102487.75;;;-2.74
71630;BMP280;59479;51.902;8.212;2024-01-10T03:20:09;102498.25;;;-2.76
71630;BMP280;59479;51.902;8.212;2024-01-10T03:22:34;102485.44;;;-2.72
71630;BMP280;59479;51.902;8.212;2024-01-10T03:25:00;102495.53;;;-2.79
71630;BMP280;59479;51.902;8.212;2024-01-10T03:27:25;102491.31;;;-2.80
71630;BMP280;59479;51.902;8.212;2024-01-10T03:29:51;102493.31;;;-2.76
71630;BMP280;59479;51.902;8.212;2024-01-10T03:32:16;102492.81;;;-2.72
71630;BMP280;59479;51.902;8.212;2024-01-10T03:34:42;102489.84;;;-2.78
71630;BMP280;59479;51.902;8.212;2024-01-10T03:37:07;102494.03;;;-2.77
71630;BMP280;59479;51.902;8.212;2024-01-10T03:39:33;102487.50;;;-2.77
71630;BMP280;59479;51.902;8.212;2024-01-10T03:41:58;102492.31;;;-2.78
71630;BMP280;59479;51.902;8.212;2024-01-10T03:44:24;102483.47;;;-2.76
71630;BMP280;59479;51.902;8.212;2024-01-10T03:46:49;102486.41;;;-2.80
71630;BMP280;59479;51.902;8.212;2024-01-10T03:49:14;102479.53;;;-2.84
71630;BMP280;59479;51.902;8.212;2024-01-10T03:51:40;102467.81;;;-2.87
71630;BMP280;59479;51.902;8.212;2024-01-10T03:54:05;102473.97;;;-2.92
71630;BMP280;59479;51.902;8.212;2024-01-10T03:56:31;102466.97;;;-2.87
71630;BMP280;59479;51.902;8.212;2024-01-10T03:58:56;102463.66;;;-2.88
71630;BMP280;59479;51.902;8.212;2024-01-10T04:01:22;102460.22;;;-2.90
71630;BMP280;59479;51.902;8.212;2024-01-10T04:03:48;102467.22;;;-2.94
71630;BMP280;59479;51.902;8.212;2024-01-10T04:06:16;102463.13;;;-2.93
71630;BMP280;59479;51.902;8.212;2024-01-10T04:08:41;102468.81;;;-2.94
71630;BMP280;59479;51.902;8.212;2024-01-10T04:11:06;102468.31;;;-2.91
71630;BMP280;59479;51.902;8.212;2024-01-10T04:13:34;102465.59;;;-2.93
71630;BMP280;59479;51.902;8.212;2024-01-10T04:15:59;102464.88;;;-2.92
71630;BMP280;59479;51.902;8.212;2024-01-10T04:18:24;102458.97;;;-2.94
71630;BMP280;59479;51.902;8.212;2024-01-10T04:20:50;102464.22;;;-3.00
71630;BMP280;59479;51.902;8.212;2024-01-10T04:23:15;102458.22;;;-2.93
71630;BMP280;59479;51.902;8.212;2024-01-10T04:25:41;102462.78;;;-3.08
71630;BMP280;59479;51.902;8.212;2024-01-10T04:28:06;102458.97;;;-3.04
71630;BMP280;59479;51.902;8.212;2024-01-10T04:30:31;102463.50;;;-2.99
71630;BMP280;59479;51.902;8.212;2024-01-10T04:32:57;102458.09;;;-2.95
71630;BMP280;59479;51.902;8.212;2024-01-10T04:35:22;102450.72;;;-2.95
71630;BMP280;59479;51.902;8.212;2024-01-10T04:37:47;102464.34;;;-2.98
71630;BMP280;59479;51.902;8.212;2024-01-10T04:40:13;102445.78;;;-2.95
71630;BMP280;59479;51.902;8.212;2024-01-10T04:42:38;102450.13;;;-2.92
71630;BMP280;59479;51.902;8.212;2024-01-10T04:45:04;102446.78;;;-2.93
71630;BMP280;59479;51.902;8.212;2024-01-10T04:47:29;102446.66;;;-2.94
71630;BMP280;59479;51.902;8.212;2024-01-10T04:49:55;102449.00;;;-2.96
71630;BMP280;59479;51.902;8.212;2024-01-10T04:52:20;102439.38;;;-2.93
71630;BMP280;59479;51.902;8.212;2024-01-10T04:54:46;102440.00;;;-2.95
71630;BMP280;59479;51.902;8.212;2024-01-10T04:57:11;102447.53;;;-2.94
71630;BMP280;59479;51.902;8.212;2024-01-10T04:59:36;102442.84;;;-2.91
71630;BMP280;59479;51.902;8.212;2024-01-10T05:02:02;102457.63;;;-2.91
71630;BMP280;59479;51.902;8.212;2024-01-10T05:04:27;102447.78;;;-2.91
71630;BMP280;59479;51.902;8.212;2024-01-10T05:06:52;102437.06;;;-2.92
71630;BMP280;59479;51.902;8.212;2024-01-10T05:09:18;102436.19;;;-2.92
71630;BMP280;59479;51.902;8.212;2024-01-10T05:11:44;102443.81;;;-2.99
71630;BMP280;59479;51.902;8.212;2024-01-10T05:14:12;102453.03;;;-2.96
71630;BMP280;59479;51.902;8.212;2024-01-10T05:16:37;102447.41;;;-2.95
71630;BMP280;59479;51.902;8.212;2024-01-10T05:19:03;102443.31;;;-2.95
71630;BMP280;59479;51.902;8.212;2024-01-10T05:21:30;102447.53;;;-2.94
71630;BMP280;59479;51.902;8.212;2024-01-10T05:23:55;102452.31;;;-2.95
71630;BMP280;59479;51.902;8.212;2024-01-10T05:26:21;102445.06;;;-2.94
71630;BMP280;59479;51.902;8.212;2024-01-10T05:28:46;102451.34;;;-2.97
71630;BMP280;59479;51.902;8.212;2024-01-10T05:31:11;102446.66;;;-2.94
71630;BMP280;59479;51.902;8.212;2024-01-10T05:33:37;102449.00;;;-2.96
71630;BMP280;59479;51.902;8.212;2024-01-10T05:36:02;102446.66;;;-2.94
71630;BMP280;59479;51.902;8.212;2024-01-10T05:38:28;102455.63;;;-2.95
71630;BMP280;59479;51.902;8.212;2024-01-10T05:40:53;102450.72;;;-2.95
71630;BMP280;59479;51.902;8.212;2024-01-10T05:43:18;102453.91;;;-2.96
71630;BMP280;59479;51.902;8.212;2024-01-10T05:45:44;102445.78;;;-2.95
71630;BMP280;59479;51.902;8.212;2024-01-10T05:48:09;102442.34;;;-2.97
71630;BMP280;59479;51.902;8.212;2024-01-10T05:50:34;102449.97;;;-3.04
71630;BMP280;59479;51.902;8.212;2024-01-10T05:53:00;102456.13;;;-2.99
71630;BMP280;59479;51.902;8.212;2024-01-10T05:55:25;102461.28;;;-3.06
71630;BMP280;59479;51.902;8.212;2024-01-10T05:57:50;102463.13;;;-3.03
71630;BMP280;59479;51.902;8.212;2024-01-10T06:00:16;102464.72;;;-3.04
71630;BMP280;59479;51.902;8.212;2024-01-10T06:02:42;102468.66;;;-3.06
71630;BMP280;59479;51.902;8.212;2024-01-10T06:05:09;102464.72;;;-3.04
71630;BMP280;59479;51.902;8.212;2024-01-10T06:07:40;102464.97;;;-3.11
71630;BMP280;59479;51.902;8.212;2024-01-10T06:10:09;102467.19;;;-3.14
71630;BMP280;59479;51.902;8.212;2024-01-10T06:12:35;102469.13;;;-3.20
71630;BMP280;59479;51.902;8.212;2024-01-10T06:15:00;102473.31;;;-3.19
71630;BMP280;59479;51.902;8.212;2024-01-10T06:17:25;102474.78;;;-3.21
71630;BMP280;59479;51.902;8.212;2024-01-10T06:19:51;102477.97;;;-3.22
71630;BMP280;59479;51.902;8.212;2024-01-10T06:22:16;102476.97;;;-3.24
71630;BMP280;59479;51.902;8.212;2024-01-10T06:24:43;102483.97;;;-3.28
71630;BMP280;59479;51.902;8.212;2024-01-10T06:27:09;102474.88;;;-3.29
71630;BMP280;59479;51.902;8.212;2024-01-10T06:29:35;102473.16;;;-3.30
71630;BMP280;59479;51.902;8.212;2024-01-10T06:32:02;102477.72;;;-3.34
71630;BMP280;59479;51.902;8.212;2024-01-10T06:34:27;102483.09;;;-3.38
71630;BMP280;59479;51.902;8.212;2024-01-10T06:36:53;102482.63;;;-3.34
71630;BMP280;59479;51.902;8.212;2024-01-10T06:39:18;102484.56;;;-3.40
71630;BMP280;59479;51.902;8.212;2024-01-10T06:41:46;102481.13;;;-3.42
71630;BMP280;59479;51.902;8.212;2024-01-10T06:44:11;102478.78;;;-3.41
71630;BMP280;59479;51.902;8.212;2024-01-10T06:46:37;102479.38;;;-3.43
71630;BMP280;59479;51.902;8.212;2024-01-10T06:49:02;102479.88;;;-3.47
71630;BMP280;59479;51.902;8.212;2024-01-10T06:51:27;102485.25;;;-3.51
71630;BMP280;59479;51.902;8.212;2024-01-10T06:53:53;102478.41;;;-3.45
71630;BMP280;59479;51.902;8.212;2024-01-10T06:56:25;102480.13;;;-3.44
71630;BMP280;59479;51.902;8.212;2024-01-10T06:58:51;102490.44;;;-3.48
71630;BMP280;59479;51.902;8.212;2024-01-10T07:01:16;102489.31;;;-3.52
71630;BMP280;59479;51.902;8.212;2024-01-10T07:03:41;102481.81;;;-3.53
71630;BMP280;59479;51.902;8.212;2024-01-10T07:06:07;102479.84;;;-3.57
71630;BMP280;59479;51.902;8.212;2024-01-10T07:08:32;102488.19;;;-3.55
71630;BMP280;59479;51.902;8.212;2024-01-10T07:10:58;102479.22;;;-3.55
71630;BMP280;59479;51.902;8.212;2024-01-10T07:13:23;102485.34;;;-3.60
71630;BMP280;59479;51.902;8.212;2024-01-10T07:15:49;102484.50;;;-3.60
71630;BMP280;59479;51.902;8.212;2024-01-10T07:18:16;102485.34;;;-3.60
71630;BMP280;59479;51.902;8.212;2024-01-10T07:20:41;102484.22;;;-3.63
71630;BMP280;59479;51.902;8.212;2024-01-10T07:23:07;102492.56;;;-3.61
71630;BMP280;59479;51.902;8.212;2024-01-10T07:25:32;102494.06;;;-3.63
71630;BMP280;59479;51.902;8.212;2024-01-10T07:27:59;102488.28;;;-3.64
71630;BMP280;59479;51.902;8.212;2024-01-10T07:30:24;102484.72;;;-3.67
71630;BMP280;59479;51.902;8.212;2024-01-10T07:32:50;102478.06;;;-3.68
71630;BMP280;59479;51.902;8.212;2024-01-10T07:35:15;102485.09;;;-3.63
71630;BMP280;59479;51.902;8.212;2024-01-10T07:37:41;102487.44;;;-3.64
71630;BMP280;59479;51.902;8.212;2024-01-10T07:40:08;102494.06;;;-3.63
71630;BMP280;59479;51.902;8.212;2024-01-10T07:42:36;102488.69;;;-3.59
71630;BMP280;59479;51.902;8.212;2024-01-10T07:45:02;102489.41;;;-3.60
71630;BMP280;59479;51.902;8.212;2024-01-10T07:47:32;102480.78;;;-3.65
71630;BMP280;59479;51.902;8.212;2024-01-10T07:49:59;102499.94;;;-3.61
71630;BMP280;59479;51.902;8.212;2024-01-10T07:52:25;102488.41;;;-3.62
71630;BMP280;59479;51.902;8.212;2024-01-10T07:54:50;102487.16;;;-3.67
71630;BMP280;59479;51.902;8.212;2024-01-10T07:57:16;102492.06;;;-3.67
71630;BMP280;59479;51.902;8.212;2024-01-10T07:59:44;102488.91;;;-3.66
71630;BMP280;59479;51.902;8.212;2024-01-10T08:02:09;102495.38;;;-3.67
71630;BMP280;59479;51.902;8.212;2024-01-10T08:04:35;102494.53;;;-3.67
71630;BMP280;59479;51.902;8.212;2024-01-10T08:07:01;102491.22;;;-3.68
71630;BMP280;59479;51.902;8.212;2024-01-10T08:09:26;102488.91;;;-3.66
71630;BMP280;59479;51.902;8.212;2024-01-10T08:11:51;102488.41;;;-3.62
71630;BMP280;59479;51.902;8.212;2024-01-10T08:14:17;102495.53;;;-3.65
71630;BMP280;59479;51.902;8.212;2024-01-10T08:16:42;102496.50;;;-3.63
71630;BMP280;59479;51.902;8.212;2024-01-10T08:19:08;102493.59;;;-3.59
71630;BMP280;59479;51.902;8.212;2024-01-10T08:21:34;102498.38;;;-3.61
71630;BMP280;59479;51.902;8.212;2024-01-10T08:24:01;102495.16;;;-3.60
71630;BMP280;59479;51.902;8.212;2024-01-10T08:26:27;102496.06;;;-3.59
71630;BMP280;59479;51.902;8.212;2024-01-10T08:28:52;102491.88;;;-3.60
71630;BMP280;59479;51.902;8.212;2024-01-10T08:31:18;102502.94;;;-3.55
71630;BMP280;59479;51.902;8.212;2024-01-10T08:33:44;102493.38;;;-3.52
71630;BMP280;59479;51.902;8.212;2024-01-10T08:36:10;102487.50;;;-3.44
71630;BMP280;59479;51.902;8.212;2024-01-10T08:38:36;102490.69;;;-3.45
71630;BMP280;59479;51.902;8.212;2024-01-10T08:41:02;102484.66;;;-3.49
71630;BMP280;59479;51.902;8.212;2024-01-10T08:43:28;102479.88;;;-3.47
71630;BMP280;59479;51.902;8.212;2024-01-10T08:45:54;102484.31;;;-3.43
71630;BMP280;59479;51.902;8.212;2024-01-10T08:48:19;102480.38;;;-3.41
71630;BMP280;59479;51.902;8.212;2024-01-10T08:50:44;102469.94;;;-3.39
71630;BMP280;59479;51.902;8.212;2024-01-10T08:53:10;102476.19;;;-3.42
71630;BMP280;59479;51.902;8.212;2024-01-10T08:55:35;102470.28;;;-3.54
71630;BMP280;59479;51.902;8.212;2024-01-10T08:58:03;102467.06;;;-3.53
71630;BMP280;59479;51.902;8.212;2024-01-10T09:00:28;102471.50;;;-3.49
71630;BMP280;59479;51.902;8.212;2024-01-10T09:02:54;102475.94;;;-3.45
71630;BMP280;59479;51.902;8.212;2024-01-10T09:05:20;102472.41;;;-3.39
71630;BMP280;59479;51.902;8.212;2024-01-10T09:07:47;102474.50;;;-3.34
71630;BMP280;59479;51.902;8.212;2024-01-10T09:10:12;102485.31;;;-3.32
71630;BMP280;59479;51.902;8.212;2024-01-10T09:12:38;102479.44;;;-3.24
71630;BMP280;59479;51.902;8.212;2024-01-10T09:15:04;102470.22;;;-3.26
71630;BMP280;59479;51.902;8.212;2024-01-10T09:17:30;102472.78;;;-3.25
71630;BMP280;59479;51.902;8.212;2024-01-10T09:19:55;102472.72;;;-3.16
71630;BMP280;59479;51.902;8.212;2024-01-10T09:22:20;102462.13;;;-3.15
71630;BMP280;59479;51.902;8.212;2024-01-10T09:24:45;102463.84;;;-3.14
71630;BMP280;59479;51.902;8.212;2024-01-10T09:27:11;102470.63;;;-3.12
71630;BMP280;59479;51.902;8.212;2024-01-10T09:29:37;102457.84;;;-3.08
71630;BMP280;59479;51.902;8.212;2024-01-10T09:32:02;102457.47;;;-3.12
71630;BMP280;59479;51.902;8.212;2024-01-10T09:34:28;102459.44;;;-2.98
71630;BMP280;59479;51.902;8.212;2024-01-10T09:36:53;102456.63;;;-3.03
71630;BMP280;59479;51.902;8.212;2024-01-10T09:39:19;102459.69;;;-2.95
71630;BMP280;59479;51.902;8.212;2024-01-10T09:41:48;102450.72;;;-2.95
71630;BMP280;59479;51.902;8.212;2024-01-10T09:44:17;102458.22;;;-2.93
71630;BMP280;59479;51.902;8.212;2024-01-10T09:46:46;102464.88;;;-2.92
71630;BMP280;59479;51.902;8.212;2024-01-10T09:49:13;102456.88;;;-2.90
71630;BMP280;59479;51.902;8.212;2024-01-10T09:51:38;102460.81;;;-2.82
71630;BMP280;59479;51.902;8.212;2024-01-10T09:54:04;102457.72;;;-2.80
71630;BMP280;59479;51.902;8.212;2024-01-10T09:56:30;102455.78;;;-2.74
71630;BMP280;59479;51.902;8.212;2024-01-10T09:58:58;102454.03;;;-2.75
71630;BMP280;59479;51.902;8.212;2024-01-10T10:01:25;102454.66;;;-2.67
71630;BMP280;59479;51.902;8.212;2024-01-10T10:03:50;102453.91;;;-2.66
71630;BMP280;59479;51.902;8.212;2024-01-10T10:06:16;102447.03;;;-2.60
71630;BMP280;59479;51.902;8.212;2024-01-10T10:08:41;102448.00;;;-2.58
71630;BMP280;59479;51.902;8.212;2024-01-10T10:11:11;102450.47;;;-2.49
71630;BMP280;59479;51.902;8.212;2024-01-10T10:13:37;102461.53;;;-2.44
71630;BMP280;59479;51.902;8.212;2024-01-10T10:16:08;102452.53;;;-2.43
71630;BMP280;59479;51.902;8.212;2024-01-10T10:18:39;102449.47;;;-2.41
71630;BMP280;59479;51.902;8.212;2024-01-10T10:21:10;102451.94;;;-2.41
71630;BMP280;59479;51.902;8.212;2024-01-10T10:23:37;102455.13;;;-2.42
71630;BMP280;59479;51.902;8.212;2024-01-10T10:26:10;102444.44;;;-2.42
71630;BMP280;59479;51.902;8.212;2024-01-10T10:28:39;102445.50;;;-2.29
71630;BMP280;59479;51.902;8.212;2024-01-10T10:31:05;102444.91;;;-2.26
71630;BMP280;59479;51.902;8.212;2024-01-10T10:33:32;102441.28;;;-2.20
71630;BMP280;59479;51.902;8.212;2024-01-10T10:35:58;102432.06;;;-2.12
71630;BMP280;59479;51.902;8.212;2024-01-10T10:38:23;102440.78;;;-2.06
71630;BMP280;59479;51.902;8.212;2024-01-10T10:40:49;102441.75;;;-2.04
71630;BMP280;59479;51.902;8.212;2024-01-10T10:43:18;102429.69;;;-2.01
71630;BMP280;59479;51.902;8.212;2024-01-10T10:45:47;102433.25;;;-1.98
71630;BMP280;59479;51.902;8.212;2024-01-10T10:48:16;102425.72;;;-1.99
71630;BMP280;59479;51.902;8.212;2024-01-10T10:51:32;102427.31;;;-1.90
71630;BMP280;59479;51.902;8.212;2024-01-10T10:53:36;102424.84;;;-1.90
71630;BMP280;59479;51.902;8.212;2024-01-10T10:56:05;102423.22;;;-1.89
71630;BMP280;59479;51.902;8.212;2024-01-10T10:58:52;102419.50;;;-1.84
71630;BMP280;59479;51.902;8.212;2024-01-10T11:01:19;102417.50;;;-1.78
71630;BMP280;59479;51.902;8.212;2024-01-10T11:03:45;102419.22;;;-1.77
71630;BMP280;59479;51.902;8.212;2024-01-10T11:06:12;102416.47;;;-1.70
71630;BMP280;59479;51.902;8.212;2024-01-10T11:08:58;102421.00;;;-1.65
71630;BMP280;59479;51.902;8.212;2024-01-10T11:17:19;102411.75;;;-1.58
71630;BMP280;59479;51.902;8.212;2024-01-10T11:23:28;102417.47;;;-1.47
71630;BMP280;59479;51.902;8.212;2024-01-10T11:26:02;102422.28;;;-1.49
71630;BMP280;59479;51.902;8.212;2024-01-10T11:28:30;102415.84;;;-1.47
71630;BMP280;59479;51.902;8.212;2024-01-10T11:30:56;102415.56;;;-1.40
71630;BMP280;59479;51.902;8.212;2024-01-10T11:33:22;102416.69;;;-1.36
71630;BMP280;59479;51.902;8.212;2024-01-10T11:38:48;102399.31;;;-1.38
71630;BMP280;59479;51.902;8.212;2024-01-10T11:46:42;102397.31;;;-1.21
71630;BMP280;59479;51.902;8.212;2024-01-10T11:49:08;102390.16;;;-1.18
71630;BMP280;59479;51.902;8.212;2024-01-10T11:51:37;102391.22;;;-1.14
71630;BMP280;59479;51.902;8.212;2024-01-10T11:54:03;102394.66;;;-1.12
71630;BMP280;59479;51.902;8.212;2024-01-10T11:56:38;102396.91;;;-1.15
71630;BMP280;59479;51.902;8.212;2024-01-10T11:59:11;102397.47;;;-1.08
71630;BMP280;59479;51.902;8.212;2024-01-10T12:01:38;102393.63;;;-1.04
71630;BMP280;59479;51.902;8.212;2024-01-10T12:04:05;102383.97;;;-1.01
71630;BMP280;59479;51.902;8.212;2024-01-10T12:06:31;102392.13;;;-1.02
71630;BMP280;59479;51.902;8.212;2024-01-10T12:08:57;102385.81;;;-0.99
71630;BMP280;59479;51.902;8.212;2024-01-10T12:11:23;102390.31;;;-0.93
71630;BMP280;59479;51.902;8.212;2024-01-10T12:13:48;102379.03;;;-0.90
71630;BMP280;59479;51.902;8.212;2024-01-10T12:16:14;102381.81;;;-0.97
71630;BMP280;59479;51.902;8.212;2024-01-10T12:18:40;102381.84;;;-0.85
71630;BMP280;59479;51.902;8.212;2024-01-10T12:21:06;102377.69;;;-0.86
71630;BMP280;59479;51.902;8.212;2024-01-10T12:23:31;102377.16;;;-0.83
71630;BMP280;59479;51.902;8.212;2024-01-10T12:26:09;102383.91;;;-0.80
71630;BMP280;59479;51.902;8.212;2024-01-10T12:28:37;102378.44;;;-0.76
71630;BMP280;59479;51.902;8.212;2024-01-10T12:31:03;102377.78;;;-0.74
71630;BMP280;59479;51.902;8.212;2024-01-10T12:33:29;102370.28;;;-0.75
71630;BMP280;59479;51.902;8.212;2024-01-10T12:36:22;102373.00;;;-0.61
71630;BMP280;59479;51.902;8.212;2024-01-10T12:38:47;102372.25;;;-0.60
71630;BMP280;59479;51.902;8.212;2024-01-10T12:41:16;102374.59;;;-0.61
71630;BMP280;59479;51.902;8.212;2024-01-10T12:43:42;102362.78;;;-0.54
71630;BMP280;59479;51.902;8.212;2024-01-10T12:46:09;102366.22;;;-0.52
71630;BMP280;59479;51.902;8.212;2024-01-10T12:48:39;102361.81;;;-0.56
71630;BMP280;59479;51.902;8.212;2024-01-10T12:51:09;102352.47;;;-0.48
71630;BMP280;59479;51.902;8.212;2024-01-10T12:53:35;102345.59;;;-0.52
71630;BMP280;59479;51.902;8.212;2024-01-10T12:56:02;102353.97;;;-0.39
71630;BMP280;59479;51.902;8.212;2024-01-10T12:58:28;102348.41;;;-0.37
71630;BMP280;59479;51.902;8.212;2024-01-10T13:00:53;102348.09;;;-0.41
71630;BMP280;59479;51.902;8.212;2024-01-10T13:03:18;102358.91;;;-0.39
71630;BMP280;59479;51.902;8.212;2024-01-10T13:05:44;102351.41;;;-0.29
71630;BMP280;59479;51.902;8.212;2024-01-10T13:08:09;102351.63;;;-0.26
71630;BMP280;59479;51.902;8.212;2024-01-10T13:10:37;102358.06;;;-0.28
71630;BMP280;59479;51.902;8.212;2024-01-10T13:13:02;102357.75;;;-0.21
71630;BMP280;59479;51.902;8.212;2024-01-10T13:15:28;102356.63;;;-0.13
71630;BMP280;59479;51.902;8.212;2024-01-10T13:17:54;102352.03;;;-0.09
71630;BMP280;59479;51.902;8.212;2024-01-10T13:20:19;102349.22;;;-0.13
71630;BMP280;59479;51.902;8.212;2024-01-10T13:22:44;102345.66;;;-0.05
71630;BMP280;59479;51.902;8.212;2024-01-10T13:25:11;102347.41;;;-0.04
71630;BMP280;59479;51.902;8.212;2024-01-10T13:27:36;102344.16;;;-0.03
71630;BMP280;59479;51.902;8.212;2024-01-10T13:30:02;102346.22;;;0.02
71630;BMP280;59479;51.902;8.212;2024-01-10T13:32:29;102338.91;;;0.03
71630;BMP280;59479;51.902;8.212;2024-01-10T13:34:54;102338.13;;;0.04
71630;BMP280;59479;51.902;8.212;2024-01-10T13:37:20;102337.59;;;0.08
71630;BMP280;59479;51.902;8.212;2024-01-10T13:39:45;102342.63;;;0.10
71630;BMP280;59479;51.902;8.212;2024-01-10T13:42:10;102343.72;;;0.13
71630;BMP280;59479;51.902;8.212;2024-01-10T13:44:36;102345.63;;;0.17
71630;BMP280;59479;51.902;8.212;2024-01-10T13:47:02;102350.97;;;0.23
71630;BMP280;59479;51.902;8.212;2024-01-10T13:49:28;102352.81;;;0.26
71630;BMP280;59479;51.902;8.212;2024-01-10T13:51:54;102355.38;;;0.27
71630;BMP280;59479;51.902;8.212;2024-01-10T13:54:19;102346.78;;;0.22
71630;BMP280;59479;51.902;8.212;2024-01-10T13:56:45;102345.38;;;0.26
71630;BMP280;59479;51.902;8.212;2024-01-10T13:59:11;102354.09;;;0.21
71630;BMP280;59479;51.902;8.212;2024-01-10T14:01:36;102355.59;;;0.30
71630;BMP280;59479;51.902;8.212;2024-01-10T14:04:02;102349.66;;;0.28
71630;BMP280;59479;51.902;8.212;2024-01-10T14:06:27;102356.56;;;0.32
71630;BMP280;59479;51.902;8.212;2024-01-10T14:08:52;102357.63;;;0.36